sensor_id;sensor_type;location;lat;lon;timestamp;pressure;altitude;pressure_sealevel;temperature;humidity
49216;BME280;45943;53.148;8.204;2023-05-21T00:01:42;102106.66;;;18.95;100.00
49216;BME280;45943;53.148;8.204;2023-05-21T00:04:10;102096.66;;;18.95;100.00
49216;BME280;45943;53.148;8.204;2023-05-21T00:06:37;102090.66;;;18.91;100.00
49216;BME280;45943;53.148;8.204;2023-05-21T00:09:04;102093.22;;;18.93;100.00
49216;BME280;45943;53.148;8.204;2023-05-21T00:11:30;102092.38;;;18.92;100.00
49216;BME280;45943;53.148;8.204;2023-05-21T00:13:56;102090.34;;;18.95;100.00
49216;BME280;45943;53.148;8.204;2023-05-21T00:16:22;102091.34;;;18.94;100.00
49216;BME280;45943;53.148;8.204;2023-05-21T00:18:49;102099.53;;;18.94;100.00
49216;BME280;45943;53.148;8.204;2023-05-21T00:21:16;102095.63;;;18.96;100.00
49216;BME280;45943;53.148;8.204;2023-05-21T00:23:42;102094.50;;;18.99;100.00
49216;BME280;45943;53.148;8.204;2023-05-21T00:26:10;102095.53;;;18.98;100.00
49216;BME280;45943;53.148;8.204;2023-05-21T00:28:36;102093.78;;;18.97;100.00
49216;BME280;45943;53.148;8.204;2023-05-21T00:31:02;102095.53;;;18.98;100.00
49216;BME280;45943;53.148;8.204;2023-05-21T00:33:27;102087.94;;;18.91;100.00
49216;BME280;45943;53.148;8.204;2023-05-21T00:35:54;102085.22;;;18.91;100.00
49216;BME280;45943;53.148;8.204;2023-05-21T00:38:21;102082.66;;;18.90;100.00
49216;BME280;45943;53.148;8.204;2023-05-21T00:40:48;102083.66;;;18.89;100.00
49216;BME280;45943;53.148;8.204;2023-05-21T00:43:14;102085.53;;;18.88;100.00
49216;BME280;45943;53.148;8.204;2023-05-21T00:45:41;102079.09;;;18.80;100.00
49216;BME280;45943;53.148;8.204;2023-05-21T00:48:11;102071.81;;;18.80;100.00
49216;BME280;45943;53.148;8.204;2023-05-21T00:50:37;102074.22;;;18.83;100.00
49216;BME280;45943;53.148;8.204;2023-05-21T00:53:05;102067.06;;;18.82;100.00
49216;BME280;45943;53.148;8.204;2023-05-21T00:55:37;102070.34;;;18.86;100.00
49216;BME280;45943;53.148;8.204;2023-05-21T00:58:04;102064.75;;;18.87;100.00
49216;BME280;45943;53.148;8.204;2023-05-21T01:00:32;102061.31;;;18.85;100.00
49216;BME280;45943;53.148;8.204;2023-05-21T01:02:59;102063.81;;;18.79;100.00
49216;BME280;45943;53.148;8.204;2023-05-21T01:05:26;102059.34;;;18.78;100.00
49216;BME280;45943;53.148;8.204;2023-05-21T01:07:53;102052.06;;;18.78;100.00
49216;BME280;45943;53.148;8.204;2023-05-21T01:10:21;102051.34;;;18.76;100.00
49216;BME280;45943;53.148;8.204;2023-05-21T01:12:48;102044.03;;;18.77;100.00
49216;BME280;45943;53.148;8.204;2023-05-21T01:15:15;102046.06;;;18.75;100.00
49216;BME280;45943;53.148;8.204;2023-05-21T01:17:41;102043.47;;;18.73;100.00
49216;BME280;45943;53.148;8.204;2023-05-21T01:20:10;102040.06;;;18.71;100.00
49216;BME280;45943;53.148;8.204;2023-05-21T01:22:37;102041.63;;;18.64;100.00
49216;BME280;45943;53.148;8.204;2023-05-21T01:25:09;102037.06;;;18.55;100.00
49216;BME280;45943;53.148;8.204;2023-05-21T01:27:35;102038.91;;;18.54;100.00
49216;BME280;45943;53.148;8.204;2023-05-21T01:30:01;102032.31;;;18.57;100.00
49216;BME280;45943;53.148;8.204;2023-05-21T01:32:35;102029.06;;;18.53;100.00
49216;BME280;45943;53.148;8.204;2023-05-21T01:35:08;102029.63;;;18.47;100.00
49216;BME280;45943;53.148;8.204;2023-05-21T01:37:44;102036.06;;;18.46;100.00
49216;BME280;45943;53.148;8.204;2023-05-21T01:40:15;102031.78;;;18.44;100.00
49216;BME280;45943;53.148;8.204;2023-05-21T01:42:45;102028.53;;;18.40;100.00
49216;BME280;45943;53.148;8.204;2023-05-21T01:45:12;102029.53;;;18.39;100.00
49216;BME280;45943;53.148;8.204;2023-05-21T01:47:41;102033.22;;;18.38;100.00
49216;BME280;45943;53.148;8.204;2023-05-21T01:50:12;102027.38;;;18.43;100.00
49216;BME280;45943;53.148;8.204;2023-05-21T01:52:46;102026.50;;;18.42;100.00
49216;BME280;45943;53.148;8.204;2023-05-21T01:55:13;102025.66;;;18.42;100.00
49216;BME280;45943;53.148;8.204;2023-05-21T01:57:39;102021.94;;;18.43;100.00
49216;BME280;45943;53.148;8.204;2023-05-21T02:00:05;102028.78;;;18.47;100.00
49216;BME280;45943;53.148;8.204;2023-05-21T02:02:32;102029.22;;;18.42;100.00
49216;BME280;45943;53.148;8.204;2023-05-21T02:04:59;102033.22;;;18.38;100.00
49216;BME280;45943;53.148;8.204;2023-05-21T02:07:25;102026.81;;;18.39;100.00
49216;BME280;45943;53.148;8.204;2023-05-21T02:09:53;102029.81;;;18.26;100.00
49216;BME280;45943;53.148;8.204;2023-05-21T02:12:19;102030.66;;;18.27;100.00
49216;BME280;45943;53.148;8.204;2023-05-21T02:14:45;102028.81;;;18.27;100.00
49216;BME280;45943;53.148;8.204;2023-05-21T02:17:15;102028.69;;;18.29;100.00
49216;BME280;45943;53.148;8.204;2023-05-21T02:19:42;102032.81;;;18.33;100.00
49216;BME280;45943;53.148;8.204;2023-05-21T02:22:09;102028.69;;;18.29;100.00
49216;BME280;45943;53.148;8.204;2023-05-21T02:24:36;102025.69;;;18.22;100.00
49216;BME280;45943;53.148;8.204;2023-05-21T02:27:02;102023.13;;;18.21;100.00
49216;BME280;45943;53.148;8.204;2023-05-21T02:29:28;102018.94;;;18.17;100.00
49216;BME280;45943;53.148;8.204;2023-05-21T02:31:54;102018.81;;;18.18;100.00
49216;BME280;45943;53.148;8.204;2023-05-21T02:34:20;102016.94;;;18.19;100.00
49216;BME280;45943;53.148;8.204;2023-05-21T02:36:46;102019.09;;;18.15;100.00
49216;BME280;45943;53.148;8.204;2023-05-21T02:39:17;102022.13;;;18.12;100.00
49216;BME280;45943;53.148;8.204;2023-05-21T02:41:44;102015.97;;;18.00;100.00
49216;BME280;45943;53.148;8.204;2023-05-21T02:44:11;102010.66;;;17.99;100.00
49216;BME280;45943;53.148;8.204;2023-05-21T02:46:38;102020.41;;;18.01;100.00
49216;BME280;45943;53.148;8.204;2023-05-21T02:49:04;102016.25;;;17.97;100.00
49216;BME280;45943;53.148;8.204;2023-05-21T02:51:30;102016.25;;;17.97;100.00
49216;BME280;45943;53.148;8.204;2023-05-21T02:53:56;102018.81;;;17.99;100.00
49216;BME280;45943;53.148;8.204;2023-05-21T02:56:22;102013.25;;;18.00;100.00
49216;BME280;45943;53.148;8.204;2023-05-21T02:58:48;102016.97;;;17.99;100.00
49216;BME280;45943;53.148;8.204;2023-05-21T03:01:14;102014.38;;;17.98;100.00
49216;BME280;45943;53.148;8.204;2023-05-21T03:03:40;102014.38;;;17.98;100.00
49216;BME280;45943;53.148;8.204;2023-05-21T03:06:06;102020.97;;;17.95;100.00
49216;BME280;45943;53.148;8.204;2023-05-21T03:08:34;102019.25;;;17.85;100.00
49216;BME280;45943;53.148;8.204;2023-05-21T03:11:01;102011.25;;;17.83;100.00
49216;BME280;45943;53.148;8.204;2023-05-21T03:13:27;102013.81;;;17.85;100.00
49216;BME280;45943;53.148;8.204;2023-05-21T03:15:53;102006.53;;;17.85;100.00
49216;BME280;45943;53.148;8.204;2023-05-21T03:18:21;102010.09;;;17.86;100.00
49216;BME280;45943;53.148;8.204;2023-05-21T03:20:47;101997.84;;;17.82;100.00
49216;BME280;45943;53.148;8.204;2023-05-21T03:23:13;102002.53;;;17.80;100.00
49216;BME280;45943;53.148;8.204;2023-05-21T03:25:40;102000.09;;;17.76;100.00
49216;BME280;45943;53.148;8.204;2023-05-21T03:28:07;102009.94;;;17.77;100.00
49216;BME280;45943;53.148;8.204;2023-05-21T03:30:34;102005.38;;;17.78;100.00
49216;BME280;45943;53.148;8.204;2023-05-21T03:33:01;102004.25;;;17.71;100.00
49216;BME280;45943;53.148;8.204;2023-05-21T03:35:28;102001.91;;;17.66;100.00
49216;BME280;45943;53.148;8.204;2023-05-21T03:37:54;101997.34;;;17.67;100.00
49216;BME280;45943;53.148;8.204;2023-05-21T03:40:20;101990.50;;;17.63;100.00
49216;BME280;45943;53.148;8.204;2023-05-21T03:42:46;101990.91;;;17.48;100.00
49216;BME280;45943;53.148;8.204;2023-05-21T03:45:12;101979.75;;;17.42;100.00
49216;BME280;45943;53.148;8.204;2023-05-21T03:47:38;101976.63;;;17.46;100.00
49216;BME280;45943;53.148;8.204;2023-05-21T03:50:06;101984.78;;;17.56;100.00
49216;BME280;45943;53.148;8.204;2023-05-21T03:52:33;101989.91;;;17.59;100.00
49216;BME280;45943;53.148;8.204;2023-05-21T03:54:59;101995.47;;;17.58;100.00
49216;BME280;45943;53.148;8.204;2023-05-21T03:57:27;101990.75;;;17.60;100.00
49216;BME280;45943;53.148;8.204;2023-05-21T03:59:53;101995.78;;;17.64;100.00
49216;BME280;45943;53.148;8.204;2023-05-21T04:02:20;101997.94;;;17.61;100.00
49216;BME280;45943;53.148;8.204;2023-05-21T04:04:46;101995.19;;;17.51;100.00
49216;BME280;45943;53.148;8.204;2023-05-21T04:07:12;102005.47;;;17.47;100.00
49216;BME280;45943;53.148;8.204;2023-05-21T04:09:40;101998.75;;;17.42;100.00
49216;BME280;45943;53.148;8.204;2023-05-21T04:12:06;101994.59;;;17.38;100.00
49216;BME280;45943;53.148;8.204;2023-05-21T04:14:33;101996.31;;;17.39;100.00
49216;BME280;45943;53.148;8.204;2023-05-21T04:16:59;101994.91;;;17.44;100.00
49216;BME280;45943;53.148;8.204;2023-05-21T04:19:29;101995.47;;;17.48;100.00
49216;BME280;45943;53.148;8.204;2023-05-21T04:21:55;102004.47;;;17.48;100.00
49216;BME280;45943;53.148;8.204;2023-05-21T04:24:22;102001.03;;;17.46;100.00
49216;BME280;45943;53.148;8.204;2023-05-21T04:26:49;102006.03;;;17.41;100.00
49216;BME280;45943;53.148;8.204;2023-05-21T04:29:15;102006.44;;;17.37;100.00
49216;BME280;45943;53.148;8.204;2023-05-21T04:31:48;102002.00;;;17.36;100.00
49216;BME280;45943;53.148;8.204;2023-05-21T04:34:14;102006.16;;;17.40;100.00
49216;BME280;45943;53.148;8.204;2023-05-21T04:36:44;102005.47;;;17.47;100.00
49216;BME280;45943;53.148;8.204;2023-05-21T04:39:11;101996.91;;;17.52;100.00
49216;BME280;45943;53.148;8.204;2023-05-21T04:41:37;101997.78;;;17.53;100.00
49216;BME280;45943;53.148;8.204;2023-05-21T04:44:06;102007.63;;;17.54;100.00
49216;BME280;45943;53.148;8.204;2023-05-21T04:46:33;101998.47;;;17.55;100.00
49216;BME280;45943;53.148;8.204;2023-05-21T04:48:59;102012.03;;;17.45;100.00
49216;BME280;45943;53.148;8.204;2023-05-21T04:51:28;102007.03;;;17.40;100.00
49216;BME280;45943;53.148;8.204;2023-05-21T04:53:55;102007.91;;;17.41;100.00
49216;BME280;45943;53.148;8.204;2023-05-21T04:56:23;102007.59;;;17.34;100.00
49216;BME280;45943;53.148;8.204;2023-05-21T04:58:51;102007.28;;;17.37;100.00
49216;BME280;45943;53.148;8.204;2023-05-21T05:01:20;101994.75;;;17.46;100.00
49216;BME280;45943;53.148;8.204;2023-05-21T05:03:54;101998.91;;;17.40;100.00
49216;BME280;45943;53.148;8.204;2023-05-21T05:06:20;101998.91;;;17.40;100.00
49216;BME280;45943;53.148;8.204;2023-05-21T05:08:48;101988.75;;;17.42;100.00
49216;BME280;45943;53.148;8.204;2023-05-21T05:11:14;101992.75;;;17.48;100.00
49216;BME280;45943;53.148;8.204;2023-05-21T05:13:40;101992.34;;;17.53;100.00
49216;BME280;45943;53.148;8.204;2023-05-21T05:16:06;101993.63;;;17.58;100.00
49216;BME280;45943;53.148;8.204;2023-05-21T05:18:32;101991.03;;;17.47;100.00
49216;BME280;45943;53.148;8.204;2023-05-21T05:20:59;101991.75;;;17.49;100.00
49216;BME280;45943;53.148;8.204;2023-05-21T05:23:25;101982.75;;;17.48;100.00
49216;BME280;45943;53.148;8.204;2023-05-21T05:25:51;101983.63;;;17.59;100.00
49216;BME280;45943;53.148;8.204;2023-05-21T05:28:17;101984.41;;;17.70;100.00
49216;BME280;45943;53.148;8.204;2023-05-21T05:30:43;101979.06;;;17.69;100.00
49216;BME280;45943;53.148;8.204;2023-05-21T05:33:09;101979.94;;;17.69;100.00
49216;BME280;45943;53.148;8.204;2023-05-21T05:35:36;101982.91;;;17.66;100.00
49216;BME280;45943;53.148;8.204;2023-05-21T05:38:02;101985.38;;;17.69;100.00
49216;BME280;45943;53.148;8.204;2023-05-21T05:40:28;101981.91;;;17.67;100.00
49216;BME280;45943;53.148;8.204;2023-05-21T05:42:54;101986.25;;;17.70;100.00
49216;BME280;45943;53.148;8.204;2023-05-21T05:45:20;101986.81;;;17.73;100.00
49216;BME280;45943;53.148;8.204;2023-05-21T05:47:46;101975.69;;;17.76;100.00
49216;BME280;45943;53.148;8.204;2023-05-21T05:50:12;101975.25;;;17.81;100.00
49216;BME280;45943;53.148;8.204;2023-05-21T05:52:38;101972.41;;;17.83;100.00
49216;BME280;45943;53.148;8.204;2023-05-21T05:55:05;101966.97;;;17.83;100.00
49216;BME280;45943;53.148;8.204;2023-05-21T05:57:33;101973.81;;;17.77;100.00
49216;BME280;45943;53.148;8.204;2023-05-21T06:00:00;101969.09;;;17.79;100.00
49216;BME280;45943;53.148;8.204;2023-05-21T06:02:26;101969.69;;;17.83;100.00
49216;BME280;45943;53.148;8.204;2023-05-21T06:04:52;101973.09;;;17.85;100.00
49216;BME280;45943;53.148;8.204;2023-05-21T06:07:18;101967.97;;;17.82;100.00
49216;BME280;45943;53.148;8.204;2023-05-21T06:09:44;101960.38;;;17.75;100.00
49216;BME280;45943;53.148;8.204;2023-05-21T06:12:10;101958.84;;;17.73;100.00
49216;BME280;45943;53.148;8.204;2023-05-21T06:14:36;101952.94;;;17.68;100.00
49216;BME280;45943;53.148;8.204;2023-05-21T06:17:02;101961.50;;;17.63;100.00
49216;BME280;45943;53.148;8.204;2023-05-21T06:19:28;101955.25;;;17.72;100.00
49216;BME280;45943;53.148;8.204;2023-05-21T06:21:54;101965.97;;;17.74;100.00
49216;BME280;45943;53.148;8.204;2023-05-21T06:24:20;101960.38;;;17.75;100.00
49216;BME280;45943;53.148;8.204;2023-05-21T06:26:46;101959.38;;;17.86;100.00
49216;BME280;45943;53.148;8.204;2023-05-21T06:29:12;101958.13;;;17.90;100.00
49216;BME280;45943;53.148;8.204;2023-05-21T06:31:38;101954.56;;;17.90;100.00
49216;BME280;45943;53.148;8.204;2023-05-21T06:34:04;101964.50;;;17.99;100.00
49216;BME280;45943;53.148;8.204;2023-05-21T06:36:30;101963.38;;;18.01;100.00
49216;BME280;45943;53.148;8.204;2023-05-21T06:38:57;101971.38;;;18.13;100.00
49216;BME280;45943;53.148;8.204;2023-05-21T06:41:23;101969.50;;;18.13;100.00
49216;BME280;45943;53.148;8.204;2023-05-21T06:43:49;101970.91;;;18.17;100.00
49216;BME280;45943;53.148;8.204;2023-05-21T06:46:15;101966.63;;;18.24;100.00
49216;BME280;45943;53.148;8.204;2023-05-21T06:48:41;101962.75;;;18.27;100.00
49216;BME280;45943;53.148;8.204;2023-05-21T06:51:07;101961.75;;;18.28;100.00
49216;BME280;45943;53.148;8.204;2023-05-21T06:53:33;101957.06;;;18.30;100.00
49216;BME280;45943;53.148;8.204;2023-05-21T06:55:59;101961.88;;;18.36;100.00
49216;BME280;45943;53.148;8.204;2023-05-21T06:58:25;101962.47;;;18.40;100.00
49216;BME280;45943;53.148;8.204;2023-05-21T07:00:59;101958.34;;;18.16;100.00
49216;BME280;45943;53.148;8.204;2023-05-21T07:03:26;101960.91;;;18.27;100.00
49216;BME280;45943;53.148;8.204;2023-05-21T07:05:52;101962.88;;;18.35;100.00
49216;BME280;45943;53.148;8.204;2023-05-21T07:08:18;101967.75;;;18.41;100.00
49216;BME280;45943;53.148;8.204;2023-05-21T07:10:44;101967.44;;;18.44;100.00
49216;BME280;45943;53.148;8.204;2023-05-21T07:13:11;101961.59;;;18.49;100.00
49216;BME280;45943;53.148;8.204;2023-05-21T07:15:37;101962.41;;;18.59;100.00
49216;BME280;45943;53.148;8.204;2023-05-21T07:18:03;101959.69;;;18.69;100.00
49216;BME280;45943;53.148;8.204;2023-05-21T07:20:29;101959.22;;;18.73;100.00
49216;BME280;45943;53.148;8.204;2023-05-21T07:22:55;101955.06;;;18.79;100.00
49216;BME280;45943;53.148;8.204;2023-05-21T07:25:22;101957.75;;;18.88;100.00
49216;BME280;45943;53.148;8.204;2023-05-21T07:27:48;101953.38;;;18.96;100.00
49216;BME280;45943;53.148;8.204;2023-05-21T07:30:14;101955.41;;;18.94;100.00
49216;BME280;45943;53.148;8.204;2023-05-21T07:32:40;101947.75;;;18.79;100.00
49216;BME280;45943;53.148;8.204;2023-05-21T07:35:06;101943.75;;;18.74;100.00
49216;BME280;45943;53.148;8.204;2023-05-21T07:37:32;101938.47;;;18.72;100.00
49216;BME280;45943;53.148;8.204;2023-05-21T07:39:58;101944.03;;;18.80;100.00
49216;BME280;45943;53.148;8.204;2023-05-21T07:42:25;101948.63;;;18.80;100.00
49216;BME280;45943;53.148;8.204;2023-05-21T07:44:51;101949.69;;;18.87;100.00
49216;BME280;45943;53.148;8.204;2023-05-21T07:47:17;101940.41;;;18.89;100.00
49216;BME280;45943;53.148;8.204;2023-05-21T07:49:43;101948.56;;;18.89;100.00
49216;BME280;45943;53.148;8.204;2023-05-21T07:52:09;101932.31;;;18.80;100.00
49216;BME280;45943;53.148;8.204;2023-05-21T07:54:35;101931.41;;;18.89;100.00
49216;BME280;45943;53.148;8.204;2023-05-21T07:57:01;101925.34;;;18.95;100.00
49216;BME280;45943;53.148;8.204;2023-05-21T07:59:27;101930.63;;;18.97;100.00
49216;BME280;45943;53.148;8.204;2023-05-21T08:01:53;101924.44;;;19.04;100.00
49216;BME280;45943;53.148;8.204;2023-05-21T08:04:20;101920.97;;;19.12;100.00
49216;BME280;45943;53.148;8.204;2023-05-21T08:06:46;101921.34;;;19.17;100.00
49216;BME280;45943;53.148;8.204;2023-05-21T08:09:13;101914.75;;;19.19;100.00
49216;BME280;45943;53.148;8.204;2023-05-21T08:11:39;101914.44;;;19.23;100.00
49216;BME280;45943;53.148;8.204;2023-05-21T08:14:05;101914.91;;;19.18;100.00
49216;BME280;45943;53.148;8.204;2023-05-21T08:16:31;101907.88;;;19.15;100.00
49216;BME280;45943;53.148;8.204;2023-05-21T08:18:57;101914.75;;;19.19;100.00
49216;BME280;45943;53.148;8.204;2023-05-21T08:21:23;101919.72;;;19.24;100.00
49216;BME280;45943;53.148;8.204;2023-05-21T08:23:51;101908.69;;;19.26;100.00
49216;BME280;45943;53.148;8.204;2023-05-21T08:26:17;101914.38;;;19.32;100.00
49216;BME280;45943;53.148;8.204;2023-05-21T08:28:43;101907.31;;;19.39;100.00
49216;BME280;45943;53.148;8.204;2023-05-21T08:31:09;101906.63;;;19.37;100.00
49216;BME280;45943;53.148;8.204;2023-05-21T08:33:35;101911.97;;;19.47;100.00
49216;BME280;45943;53.148;8.204;2023-05-21T08:36:05;101921.47;;;19.61;100.00
49216;BME280;45943;53.148;8.204;2023-05-21T08:38:31;101923.72;;;19.65;100.00
49216;BME280;45943;53.148;8.204;2023-05-21T08:40:58;101924.81;;;19.72;100.00
49216;BME280;45943;53.148;8.204;2023-05-21T08:43:28;101925.22;;;19.77;100.00
49216;BME280;45943;53.148;8.204;2023-05-21T08:45:54;101926.84;;;19.88;100.00
49216;BME280;45943;53.148;8.204;2023-05-21T08:48:23;101924.19;;;19.96;100.00
49216;BME280;45943;53.148;8.204;2023-05-21T08:50:50;101923.75;;;20.09;100.00
49216;BME280;45943;53.148;8.204;2023-05-21T08:53:17;101925.53;;;20.18;100.00
49216;BME280;45943;53.148;8.204;2023-05-21T08:55:43;101926.56;;;20.25;100.00
49216;BME280;45943;53.148;8.204;2023-05-21T08:58:09;101925.59;;;20.26;100.00
49216;BME280;45943;53.148;8.204;2023-05-21T09:00:35;101920.16;;;20.34;100.00
49216;BME280;45943;53.148;8.204;2023-05-21T09:03:03;101923.75;;;20.35;100.00
49216;BME280;45943;53.148;8.204;2023-05-21T09:05:42;101924.75;;;20.34;100.00
49216;BME280;45943;53.148;8.204;2023-05-21T09:10:47;101920.13;;;20.52;100.00
49216;BME280;45943;53.148;8.204;2023-05-21T09:13:17;101918.50;;;20.68;100.00
49216;BME280;45943;53.148;8.204;2023-05-21T09:15:44;101910.63;;;20.65;100.00
49216;BME280;45943;53.148;8.204;2023-05-21T09:18:11;101910.03;;;20.79;100.00
49216;BME280;45943;53.148;8.204;2023-05-21T09:20:38;101911.44;;;20.91;100.00
49216;BME280;45943;53.148;8.204;2023-05-21T09:23:05;101908.94;;;21.06;100.00
49216;BME280;45943;53.148;8.204;2023-05-21T09:25:37;101901.06;;;21.03;100.00
49216;BME280;45943;53.148;8.204;2023-05-21T09:28:09;101891.38;;;21.08;100.00
49216;BME280;45943;53.148;8.204;2023-05-21T09:30:36;101895.66;;;21.19;100.00
49216;BME280;45943;53.148;8.204;2023-05-21T09:33:08;101897.63;;;21.35;100.00
49216;BME280;45943;53.148;8.204;2023-05-21T09:35:34;101891.47;;;21.41;100.00
49216;BME280;45943;53.148;8.204;2023-05-21T09:38:01;101890.63;;;21.48;100.00
49216;BME280;45943;53.148;8.204;2023-05-21T09:40:33;101896.28;;;21.55;100.00
49216;BME280;45943;53.148;8.204;2023-05-21T09:43:00;101899.00;;;21.63;100.00
49216;BME280;45943;53.148;8.204;2023-05-21T09:45:26;101892.50;;;21.72;100.00
49216;BME280;45943;53.148;8.204;2023-05-21T09:47:54;101890.28;;;21.76;100.00
49216;BME280;45943;53.148;8.204;2023-05-21T09:50:24;101889.94;;;21.71;100.00
49216;BME280;45943;53.148;8.204;2023-05-21T09:52:52;101895.22;;;21.72;100.00
49216;BME280;45943;53.148;8.204;2023-05-21T09:55:23;101890.47;;;21.66;100.00
49216;BME280;45943;53.148;8.204;2023-05-21T09:57:51;101890.81;;;21.55;100.00
49216;BME280;45943;53.148;8.204;2023-05-21T10:00:18;101880.38;;;21.59;100.00
49216;BME280;45943;53.148;8.204;2023-05-21T10:02:52;101877.00;;;21.65;100.00
49216;BME280;45943;53.148;8.204;2023-05-21T10:05:19;101881.06;;;21.77;100.00
49216;BME280;45943;53.148;8.204;2023-05-21T10:07:50;101878.00;;;21.80;100.00
49216;BME280;45943;53.148;8.204;2023-05-21T10:10:18;101873.38;;;21.97;100.00
49216;BME280;45943;53.148;8.204;2023-05-21T10:12:46;101866.72;;;22.08;100.00
49216;BME280;45943;53.148;8.204;2023-05-21T10:15:17;101864.66;;;22.18;100.00
49216;BME280;45943;53.148;8.204;2023-05-21T10:17:46;101860.38;;;22.23;100.00
49216;BME280;45943;53.148;8.204;2023-05-21T10:20:14;101868.53;;;22.31;100.00
49216;BME280;45943;53.148;8.204;2023-05-21T10:22:41;101870.25;;;22.32;100.00
49216;BME280;45943;53.148;8.204;2023-05-21T10:25:07;101855.75;;;22.32;100.00
49216;BME280;45943;53.148;8.204;2023-05-21T10:27:34;101862.84;;;22.41;100.00
49216;BME280;45943;53.148;8.204;2023-05-21T10:30:01;101862.16;;;22.47;100.00
49216;BME280;45943;53.148;8.204;2023-05-21T10:32:28;101861.09;;;22.56;100.00
49216;BME280;45943;53.148;8.204;2023-05-21T10:34:55;101852.31;;;22.69;100.00
49216;BME280;45943;53.148;8.204;2023-05-21T10:37:22;101851.59;;;22.83;100.00
49216;BME280;45943;53.148;8.204;2023-05-21T10:39:51;101848.75;;;23.00;100.00
49216;BME280;45943;53.148;8.204;2023-05-21T10:45:18;101844.53;;;23.20;100.00
49216;BME280;45943;53.148;8.204;2023-05-21T10:50:55;101846.84;;;23.54;100.00
49216;BME280;45943;53.148;8.204;2023-05-21T10:54:00;101844.16;;;23.69;100.00
49216;BME280;45943;53.148;8.204;2023-05-21T10:56:38;101846.94;;;23.84;100.00
49216;BME280;45943;53.148;8.204;2023-05-21T11:01:50;101839.03;;;24.03;100.00
49216;BME280;45943;53.148;8.204;2023-05-21T11:04:21;101843.50;;;24.19;100.00
49216;BME280;45943;53.148;8.204;2023-05-21T11:06:50;101845.38;;;24.19;100.00
49216;BME280;45943;53.148;8.204;2023-05-21T11:09:16;101841.94;;;24.17;100.00
49216;BME280;45943;53.148;8.204;2023-05-21T11:11:43;101833.91;;;24.15;100.00
49216;BME280;45943;53.148;8.204;2023-05-21T11:20:06;101822.59;;;24.48;100.00
49216;BME280;45943;53.148;8.204;2023-05-21T11:22:33;101828.47;;;24.45;100.00
49216;BME280;45943;53.148;8.204;2023-05-21T11:25:01;101822.84;;;24.68;100.00
49216;BME280;45943;53.148;8.204;2023-05-21T11:27:32;101822.66;;;24.69;100.00
49216;BME280;45943;53.148;8.204;2023-05-21T11:29:58;101818.72;;;24.93;100.00
49216;BME280;45943;53.148;8.204;2023-05-21T11:32:27;101820.31;;;25.24;100.00
49216;BME280;45943;53.148;8.204;2023-05-21T11:34:54;101817.94;;;25.63;100.00
49216;BME280;45943;53.148;8.204;2023-05-21T11:37:25;101815.63;;;25.88;97.20
49216;BME280;45943;53.148;8.204;2023-05-21T11:39:53;101802.16;;;26.00;93.79
49216;BME280;45943;53.148;8.204;2023-05-21T11:42:41;101810.78;;;25.90;94.58
49216;BME280;45943;53.148;8.204;2023-05-21T11:45:08;101804.22;;;25.91;94.69
49216;BME280;45943;53.148;8.204;2023-05-21T11:47:35;101802.00;;;26.08;90.74
49216;BME280;45943;53.148;8.204;2023-05-21T11:50:01;101798.06;;;26.17;88.39
49216;BME280;45943;53.148;8.204;2023-05-21T11:52:29;101805.03;;;26.20;91.11
49216;BME280;45943;53.148;8.204;2023-05-21T11:54:55;101798.22;;;26.09;88.36
49216;BME280;45943;53.148;8.204;2023-05-21T11:57:24;101792.34;;;26.19;88.96
49216;BME280;45943;53.148;8.204;2023-05-21T11:59:55;101789.50;;;26.40;86.70
49216;BME280;45943;53.148;8.204;2023-05-21T12:02:24;101791.31;;;26.74;85.87
49216;BME280;45943;53.148;8.204;2023-05-21T12:04:54;101794.53;;;26.78;81.86
49216;BME280;45943;53.148;8.204;2023-05-21T12:07:25;101784.84;;;26.41;84.69
49216;BME280;45943;53.148;8.204;2023-05-21T12:09:56;101795.28;;;25.83;91.26
49216;BME280;45943;53.148;8.204;2023-05-21T12:12:24;101785.25;;;25.96;89.39
49216;BME280;45943;53.148;8.204;2023-05-21T12:14:51;101785.13;;;25.83;87.55
49216;BME280;45943;53.148;8.204;2023-05-21T12:17:19;101787.31;;;25.94;91.68
49216;BME280;45943;53.148;8.204;2023-05-21T12:19:46;101778.78;;;25.83;91.59
49216;BME280;45943;53.148;8.204;2023-05-21T12:22:14;101772.16;;;26.05;89.88
49216;BME280;45943;53.148;8.204;2023-05-21T12:24:41;101775.47;;;26.28;82.75
49216;BME280;45943;53.148;8.204;2023-05-21T12:27:10;101774.78;;;26.20;85.38
49216;BME280;45943;53.148;8.204;2023-05-21T12:29:38;101772.41;;;26.51;88.13
49216;BME280;45943;53.148;8.204;2023-05-21T12:32:07;101769.31;;;26.26;85.61
49216;BME280;45943;53.148;8.204;2023-05-21T12:37:04;101774.69;;;26.00;88.85
49216;BME280;45943;53.148;8.204;2023-05-21T12:39:35;101768.38;;;26.06;92.11
49216;BME280;45943;53.148;8.204;2023-05-21T12:42:03;101769.88;;;26.50;89.08
49216;BME280;45943;53.148;8.204;2023-05-21T12:44:29;101764.84;;;26.73;86.66
49216;BME280;45943;53.148;8.204;2023-05-21T12:46:56;101771.03;;;26.88;85.16
49216;BME280;45943;53.148;8.204;2023-05-21T12:49:32;101764.94;;;27.13;80.61
49216;BME280;45943;53.148;8.204;2023-05-21T12:52:09;101763.84;;;26.87;78.86
49216;BME280;45943;53.148;8.204;2023-05-21T12:54:37;101763.56;;;26.63;81.39
49216;BME280;45943;53.148;8.204;2023-05-21T12:57:14;101760.19;;;26.67;85.05
49216;BME280;45943;53.148;8.204;2023-05-21T13:02:14;101758.22;;;26.48;88.50
49216;BME280;45943;53.148;8.204;2023-05-21T13:04:43;101754.44;;;26.55;91.61